sensor_id;sensor_type;location;lat;lon;timestamp;pressure;altitude;pressure_sealevel;temperature;humidity
5574;BME280;2563;52.242;7.956;2023-03-01T00:00:26;102307.97;;;-4.47;100.00
5574;BME280;2563;52.242;7.956;2023-03-01T00:02:51;102307.97;;;-4.47;100.00
5574;BME280;2563;52.242;7.956;2023-03-01T00:05:17;102289.00;;;-4.56;100.00
5574;BME280;2563;52.242;7.956;2023-03-01T00:07:42;102285.31;;;-4.61;100.00
5574;BME280;2563;52.242;7.956;2023-03-01T00:10:08;102278.16;;;-4.68;100.00
5574;BME280;2563;52.242;7.956;2023-03-01T00:12:34;102271.00;;;-4.75;100.00
5574;BME280;2563;52.242;7.956;2023-03-01T00:14:59;102249.66;;;-4.68;100.00
5574;BME280;2563;52.242;7.956;2023-03-01T00:17:24;102231.78;;;-4.60;100.00
5574;BME280;2563;52.242;7.956;2023-03-01T00:19:50;102231.22;;;-4.69;100.00
5574;BME280;2563;52.242;7.956;2023-03-01T00:22:15;102225.72;;;-4.88;100.00
5574;BME280;2563;52.242;7.956;2023-03-01T00:24:40;102218.78;;;-4.93;100.00
5574;BME280;2563;52.242;7.956;2023-03-01T00:27:06;102215.25;;;-4.83;100.00
5574;BME280;2563;52.242;7.956;2023-03-01T00:29:31;102205.88;;;-4.85;100.00
5574;BME280;2563;52.242;7.956;2023-03-01T00:31:56;102201.81;;;-4.83;100.00
5574;BME280;2563;52.242;7.956;2023-03-01T00:34:22;102193.69;;;-4.79;100.00
5574;BME280;2563;52.242;7.956;2023-03-01T00:36:47;102179.03;;;-4.73;100.00
5574;BME280;2563;52.242;7.956;2023-03-01T00:39:14;102163.53;;;-4.93;100.00
5574;BME280;2563;52.242;7.956;2023-03-01T00:41:40;102162.38;;;-4.98;100.00
5574;BME280;2563;52.242;7.956;2023-03-01T00:44:05;102157.94;;;-5.02;100.00
5574;BME280;2563;52.242;7.956;2023-03-01T00:46:31;102153.78;;;-5.01;100.00
5574;BME280;2563;52.242;7.956;2023-03-01T00:48:57;102145.19;;;-5.05;100.00
5574;BME280;2563;52.242;7.956;2023-03-01T00:51:25;102139.19;;;-5.07;100.00
5574;BME280;2563;52.242;7.956;2023-03-01T00:53:53;102130.38;;;-5.14;100.00
5574;BME280;2563;52.242;7.956;2023-03-01T00:56:20;102121.00;;;-5.16;100.00
5574;BME280;2563;52.242;7.956;2023-03-01T00:58:45;102107.69;;;-5.15;100.00
5574;BME280;2563;52.242;7.956;2023-03-01T01:01:14;102098.31;;;-5.18;100.00
5574;BME280;2563;52.242;7.956;2023-03-01T01:03:54;102085.97;;;-5.15;100.00
5574;BME280;2563;52.242;7.956;2023-03-01T01:06:22;102073.50;;;-5.13;100.00
5574;BME280;2563;52.242;7.956;2023-03-01T01:08:49;102065.19;;;-5.25;100.00
5574;BME280;2563;52.242;7.956;2023-03-01T01:11:14;102054.41;;;-5.24;100.00
5574;BME280;2563;52.242;7.956;2023-03-01T01:13:41;102050.13;;;-5.25;100.00
5574;BME280;2563;52.242;7.956;2023-03-01T01:16:07;102040.09;;;-5.25;100.00
5574;BME280;2563;52.242;7.956;2023-03-01T01:18:32;102020.88;;;-5.25;100.00
5574;BME280;2563;52.242;7.956;2023-03-01T01:21:03;102008.03;;;-5.29;100.00
5574;BME280;2563;52.242;7.956;2023-03-01T01:23:29;102007.28;;;-5.28;100.00
5574;BME280;2563;52.242;7.956;2023-03-01T01:25:54;101998.59;;;-5.33;100.00
5574;BME280;2563;52.242;7.956;2023-03-01T01:28:19;101984.31;;;-5.35;100.00
5574;BME280;2563;52.242;7.956;2023-03-01T01:30:45;101974.09;;;-5.38;100.00
5574;BME280;2563;52.242;7.956;2023-03-01T01:33:10;101963.25;;;-5.37;100.00
5574;BME280;2563;52.242;7.956;2023-03-01T01:35:35;101959.44;;;-5.31;100.00
5574;BME280;2563;52.242;7.956;2023-03-01T01:38:01;101944.38;;;-5.31;100.00
5574;BME280;2563;52.242;7.956;2023-03-01T01:40:26;101925.44;;;-5.40;100.00
5574;BME280;2563;52.242;7.956;2023-03-01T01:42:51;101917.44;;;-5.47;100.00
5574;BME280;2563;52.242;7.956;2023-03-01T01:45:31;101903.75;;;-5.52;100.00
5574;BME280;2563;52.242;7.956;2023-03-01T01:48:10;101895.94;;;-5.57;100.00
5574;BME280;2563;52.242;7.956;2023-03-01T01:50:39;101888.22;;;-5.60;100.00
5574;BME280;2563;52.242;7.956;2023-03-01T01:53:09;101881.75;;;-5.57;100.00
5574;BME280;2563;52.242;7.956;2023-03-01T01:55:36;101870.66;;;-5.60;100.00
5574;BME280;2563;52.242;7.956;2023-03-01T01:58:07;101866.50;;;-5.60;100.00
5574;BME280;2563;52.242;7.956;2023-03-01T02:00:33;101865.25;;;-5.66;100.00
5574;BME280;2563;52.242;7.956;2023-03-01T02:03:11;101851.94;;;-5.65;100.00
5574;BME280;2563;52.242;7.956;2023-03-01T02:05:47;101834.75;;;-5.72;100.00
5574;BME280;2563;52.242;7.956;2023-03-01T02:08:18;101826.31;;;-5.74;100.00
5574;BME280;2563;52.242;7.956;2023-03-01T02:10:45;101817.31;;;-5.71;100.00
5574;BME280;2563;52.242;7.956;2023-03-01T02:13:12;101815.50;;;-5.73;100.00
5574;BME280;2563;52.242;7.956;2023-03-01T02:15:39;101814.53;;;-5.75;100.00
5574;BME280;2563;52.242;7.956;2023-03-01T02:18:06;101791.75;;;-5.65;100.00
5574;BME280;2563;52.242;7.956;2023-03-01T02:23:04;101782.31;;;-5.83;100.00
5574;BME280;2563;52.242;7.956;2023-03-01T02:25:35;101771.25;;;-5.86;100.00
5574;BME280;2563;52.242;7.956;2023-03-01T02:28:19;101765.44;;;-5.85;100.00
5574;BME280;2563;52.242;7.956;2023-03-01T02:30:47;101753.19;;;-5.81;100.00
5574;BME280;2563;52.242;7.956;2023-03-01T02:33:33;101743.97;;;-5.82;100.00
5574;BME280;2563;52.242;7.956;2023-03-01T02:36:03;101739.91;;;-5.93;100.00
5574;BME280;2563;52.242;7.956;2023-03-01T02:38:31;101740.53;;;-5.97;100.00
5574;BME280;2563;52.242;7.956;2023-03-01T02:40:57;101739.94;;;-6.06;100.00
5574;BME280;2563;52.242;7.956;2023-03-01T02:43:24;101727.91;;;-6.12;100.00
5574;BME280;2563;52.242;7.956;2023-03-01T02:45:54;101732.44;;;-6.06;100.00
5574;BME280;2563;52.242;7.956;2023-03-01T02:48:22;101719.03;;;-6.07;100.00
5574;BME280;2563;52.242;7.956;2023-03-01T02:56:31;101687.16;;;-6.09;100.00
5574;BME280;2563;52.242;7.956;2023-03-01T02:58:57;101681.16;;;-6.11;100.00
5574;BME280;2563;52.242;7.956;2023-03-01T03:01:26;101684.06;;;-6.18;100.00
5574;BME280;2563;52.242;7.956;2023-03-01T03:04:03;101673.47;;;-6.14;100.00
5574;BME280;2563;52.242;7.956;2023-03-01T03:06:29;101671.94;;;-6.12;100.00
5574;BME280;2563;52.242;7.956;2023-03-01T03:08:54;101667.78;;;-6.12;100.00
5574;BME280;2563;52.242;7.956;2023-03-01T03:11:19;101668.28;;;-6.17;100.00
5574;BME280;2563;52.242;7.956;2023-03-01T03:13:45;101659.00;;;-6.18;100.00
5574;BME280;2563;52.242;7.956;2023-03-01T03:16:13;101651.66;;;-6.15;100.00
5574;BME280;2563;52.242;7.956;2023-03-01T03:18:39;101643.97;;;-6.18;100.00
5574;BME280;2563;52.242;7.956;2023-03-01T03:21:07;101641.41;;;-6.20;100.00
5574;BME280;2563;52.242;7.956;2023-03-01T03:23:35;101632.81;;;-6.24;100.00
5574;BME280;2563;52.242;7.956;2023-03-01T03:26:01;101637.66;;;-6.27;100.00
5574;BME280;2563;52.242;7.956;2023-03-01T03:28:32;101627.81;;;-6.24;100.00
5574;BME280;2563;52.242;7.956;2023-03-01T03:30:58;101613.91;;;-6.18;100.00
5574;BME280;2563;52.242;7.956;2023-03-01T03:33:31;101610.94;;;-6.13;100.00
5574;BME280;2563;52.242;7.956;2023-03-01T03:35:56;101610.94;;;-6.13;100.00
5574;BME280;2563;52.242;7.956;2023-03-01T03:38:22;101604.44;;;-6.09;100.00
5574;BME280;2563;52.242;7.956;2023-03-01T03:40:52;101603.31;;;-6.14;100.00
5574;BME280;2563;52.242;7.956;2023-03-01T03:43:22;101594.56;;;-6.21;100.00
5574;BME280;2563;52.242;7.956;2023-03-01T03:45:50;101580.78;;;-6.28;100.00
5574;BME280;2563;52.242;7.956;2023-03-01T03:48:16;101576.56;;;-6.29;100.00
5574;BME280;2563;52.242;7.956;2023-03-01T03:50:47;101573.75;;;-6.20;100.00
5574;BME280;2563;52.242;7.956;2023-03-01T03:53:13;101559.88;;;-6.28;100.00
5574;BME280;2563;52.242;7.956;2023-03-01T03:55:39;101550.16;;;-6.37;100.00
5574;BME280;2563;52.242;7.956;2023-03-01T03:58:08;101548.84;;;-6.32;100.00
5574;BME280;2563;52.242;7.956;2023-03-01T04:00:40;101549.13;;;-6.40;100.00
5574;BME280;2563;52.242;7.956;2023-03-01T04:03:06;101537.41;;;-6.42;100.00
5574;BME280;2563;52.242;7.956;2023-03-01T04:05:33;101524.75;;;-6.43;100.00
5574;BME280;2563;52.242;7.956;2023-03-01T04:07:58;101523.00;;;-6.44;100.00
5574;BME280;2563;52.242;7.956;2023-03-01T04:10:38;101514.25;;;-6.37;100.00
5574;BME280;2563;52.242;7.956;2023-03-01T04:13:05;101499.63;;;-6.45;100.00
5574;BME280;2563;52.242;7.956;2023-03-01T04:15:32;101511.09;;;-6.48;100.00
5574;BME280;2563;52.242;7.956;2023-03-01T04:17:58;101513.34;;;-6.53;100.00
5574;BME280;2563;52.242;7.956;2023-03-01T04:20:26;101499.16;;;-6.52;100.00
5574;BME280;2563;52.242;7.956;2023-03-01T04:23:08;101501.56;;;-6.54;100.00
5574;BME280;2563;52.242;7.956;2023-03-01T04:25:40;101490.00;;;-6.52;100.00
5574;BME280;2563;52.242;7.956;2023-03-01T04:28:05;101485.50;;;-6.57;100.00
5574;BME280;2563;52.242;7.956;2023-03-01T04:30:31;101484.72;;;-6.56;100.00
5574;BME280;2563;52.242;7.956;2023-03-01T04:33:02;101477.22;;;-6.56;100.00
5574;BME280;2563;52.242;7.956;2023-03-01T04:35:28;101472.88;;;-6.59;100.00
5574;BME280;2563;52.242;7.956;2023-03-01T04:37:53;101470.31;;;-6.60;100.00
5574;BME280;2563;52.242;7.956;2023-03-01T04:40:18;101467.59;;;-6.64;100.00
5574;BME280;2563;52.242;7.956;2023-03-01T04:42:44;101461.56;;;-6.67;100.00
5574;BME280;2563;52.242;7.956;2023-03-01T04:45:10;101463.22;;;-6.68;100.00
5574;BME280;2563;52.242;7.956;2023-03-01T04:47:42;101455.00;;;-6.65;100.00
5574;BME280;2563;52.242;7.956;2023-03-01T04:50:08;101451.81;;;-6.63;100.00
5574;BME280;2563;52.242;7.956;2023-03-01T04:52:34;101451.22;;;-6.58;100.00
5574;BME280;2563;52.242;7.956;2023-03-01T04:55:01;101442.56;;;-6.64;100.00
5574;BME280;2563;52.242;7.956;2023-03-01T04:57:26;101439.72;;;-6.70;100.00
5574;BME280;2563;52.242;7.956;2023-03-01T04:59:51;101429.88;;;-6.67;100.00
5574;BME280;2563;52.242;7.956;2023-03-01T05:02:17;101433.16;;;-6.68;100.00
5574;BME280;2563;52.242;7.956;2023-03-01T05:04:42;101437.97;;;-6.71;100.00
5574;BME280;2563;52.242;7.956;2023-03-01T05:07:07;101437.78;;;-6.74;100.00
5574;BME280;2563;52.242;7.956;2023-03-01T05:09:33;101429.50;;;-6.73;100.00
5574;BME280;2563;52.242;7.956;2023-03-01T05:11:58;101425.44;;;-6.71;100.00
5574;BME280;2563;52.242;7.956;2023-03-01T05:14:24;101439.34;;;-6.76;100.00
5574;BME280;2563;52.242;7.956;2023-03-01T05:16:49;101439.72;;;-6.70;100.00
5574;BME280;2563;52.242;7.956;2023-03-01T05:19:14;101430.84;;;-6.65;100.00
5574;BME280;2563;52.242;7.956;2023-03-01T05:21:48;101434.78;;;-6.68;100.00
5574;BME280;2563;52.242;7.956;2023-03-01T05:24:30;101439.25;;;-6.77;100.00
5574;BME280;2563;52.242;7.956;2023-03-01T05:26:56;101437.25;;;-6.83;100.00
5574;BME280;2563;52.242;7.956;2023-03-01T05:29:23;101443.22;;;-6.81;100.00
5574;BME280;2563;52.242;7.956;2023-03-01T05:31:56;101444.84;;;-6.81;100.00
5574;BME280;2563;52.242;7.956;2023-03-01T05:34:32;101443.03;;;-6.84;100.00
5574;BME280;2563;52.242;7.956;2023-03-01T05:36:58;101439.00;;;-6.82;100.00
5574;BME280;2563;52.242;7.956;2023-03-01T05:39:25;101433.97;;;-6.82;100.00
5574;BME280;2563;52.242;7.956;2023-03-01T05:41:53;101438.22;;;-6.94;100.00
5574;BME280;2563;52.242;7.956;2023-03-01T05:44:19;101438.91;;;-6.97;100.00
5574;BME280;2563;52.242;7.956;2023-03-01T05:46:44;101440.81;;;-6.93;100.00
5574;BME280;2563;52.242;7.956;2023-03-01T05:49:11;101448.78;;;-6.85;100.00
5574;BME280;2563;52.242;7.956;2023-03-01T05:51:38;101439.28;;;-6.91;100.00
5574;BME280;2563;52.242;7.956;2023-03-01T05:54:04;101445.16;;;-6.90;100.00
5574;BME280;2563;52.242;7.956;2023-03-01T05:56:32;101445.66;;;-6.96;100.00
5574;BME280;2563;52.242;7.956;2023-03-01T05:58:58;101448.84;;;-6.98;100.00
5574;BME280;2563;52.242;7.956;2023-03-01T06:01:24;101448.72;;;-7.00;100.00
5574;BME280;2563;52.242;7.956;2023-03-01T06:03:49;101441.91;;;-7.02;100.00
5574;BME280;2563;52.242;7.956;2023-03-01T06:06:14;101442.75;;;-7.02;100.00
5574;BME280;2563;52.242;7.956;2023-03-01T06:08:40;101439.41;;;-7.02;100.00
5574;BME280;2563;52.242;7.956;2023-03-01T06:11:05;101433.25;;;-7.08;100.00
5574;BME280;2563;52.242;7.956;2023-03-01T06:13:32;101426.13;;;-7.01;100.00
5574;BME280;2563;52.242;7.956;2023-03-01T06:15:57;101427.00;;;-7.01;100.00
5574;BME280;2563;52.242;7.956;2023-03-01T06:18:23;101431.50;;;-6.95;100.00
5574;BME280;2563;52.242;7.956;2023-03-01T06:20:55;101422.63;;;-6.90;100.00
5574;BME280;2563;52.242;7.956;2023-03-01T06:23:22;101424.66;;;-6.85;100.00
5574;BME280;2563;52.242;7.956;2023-03-01T06:25:47;101425.41;;;-6.86;100.00
5574;BME280;2563;52.242;7.956;2023-03-01T06:28:12;101424.66;;;-6.85;100.00
5574;BME280;2563;52.242;7.956;2023-03-01T06:30:38;101419.53;;;-6.86;100.00
5574;BME280;2563;52.242;7.956;2023-03-01T06:33:03;101413.44;;;-6.76;100.00
5574;BME280;2563;52.242;7.956;2023-03-01T06:35:29;101403.88;;;-6.69;100.00
5574;BME280;2563;52.242;7.956;2023-03-01T06:37:55;101403.31;;;-6.65;100.00
5574;BME280;2563;52.242;7.956;2023-03-01T06:40:21;101408.66;;;-6.58;100.00
5574;BME280;2563;52.242;7.956;2023-03-01T06:42:50;101407.22;;;-6.55;100.00
5574;BME280;2563;52.242;7.956;2023-03-01T06:45:17;101401.63;;;-6.51;100.00
5574;BME280;2563;52.242;7.956;2023-03-01T06:47:43;101394.22;;;-6.19;100.00
5574;BME280;2563;52.242;7.956;2023-03-01T06:50:09;101386.44;;;-5.94;100.00
5574;BME280;2563;52.242;7.956;2023-03-01T06:52:35;101370.84;;;-5.74;100.00
5574;BME280;2563;52.242;7.956;2023-03-01T06:55:01;101367.03;;;-5.67;100.00
5574;BME280;2563;52.242;7.956;2023-03-01T06:57:27;101369.69;;;-5.64;100.00
5574;BME280;2563;52.242;7.956;2023-03-01T06:59:52;101364.69;;;-5.64;100.00
5574;BME280;2563;52.242;7.956;2023-03-01T07:02:18;101361.13;;;-5.53;100.00
5574;BME280;2563;52.242;7.956;2023-03-01T07:04:43;101348.59;;;-5.37;100.00
5574;BME280;2563;52.242;7.956;2023-03-01T07:07:09;101334.84;;;-5.12;100.00
5574;BME280;2563;52.242;7.956;2023-03-01T07:09:34;101323.63;;;-4.86;100.00
5574;BME280;2563;52.242;7.956;2023-03-01T07:12:00;101311.13;;;-4.68;100.00
5574;BME280;2563;52.242;7.956;2023-03-01T07:14:26;101307.16;;;-4.46;100.00
5574;BME280;2563;52.242;7.956;2023-03-01T07:16:54;101297.91;;;-4.30;100.00
5574;BME280;2563;52.242;7.956;2023-03-01T07:19:21;101301.72;;;-4.20;100.00
5574;BME280;2563;52.242;7.956;2023-03-01T07:21:46;101294.56;;;-3.94;100.00
5574;BME280;2563;52.242;7.956;2023-03-01T07:24:12;101281.53;;;-3.68;100.00
5574;BME280;2563;52.242;7.956;2023-03-01T07:26:37;101267.78;;;-3.37;100.00
5574;BME280;2563;52.242;7.956;2023-03-01T07:29:05;101245.72;;;-3.04;100.00
5574;BME280;2563;52.242;7.956;2023-03-01T07:31:30;101244.16;;;-2.81;100.00
5574;BME280;2563;52.242;7.956;2023-03-01T07:33:56;101238.03;;;-2.45;100.00
5574;BME280;2563;52.242;7.956;2023-03-01T07:36:22;101232.91;;;-2.26;100.00
5574;BME280;2563;52.242;7.956;2023-03-01T07:38:48;101225.97;;;-2.09;100.00
5574;BME280;2563;52.242;7.956;2023-03-01T07:41:13;101226.44;;;-1.97;100.00
5574;BME280;2563;52.242;7.956;2023-03-01T07:43:39;101220.47;;;-1.76;100.00
5574;BME280;2563;52.242;7.956;2023-03-01T07:46:05;101215.53;;;-1.51;100.00
5574;BME280;2563;52.242;7.956;2023-03-01T07:48:32;101211.16;;;-1.07;100.00
5574;BME280;2563;52.242;7.956;2023-03-01T07:50:59;101209.44;;;-0.82;100.00
5574;BME280;2563;52.242;7.956;2023-03-01T07:53:24;101217.53;;;-0.67;100.00
5574;BME280;2563;52.242;7.956;2023-03-01T07:55:59;101215.06;;;-0.38;100.00
5574;BME280;2563;52.242;7.956;2023-03-01T07:58:24;101210.94;;;-0.07;100.00
5574;BME280;2563;52.242;7.956;2023-03-01T08:00:50;101214.91;;;0.13;100.00
5574;BME280;2563;52.242;7.956;2023-03-01T08:03:15;101216.09;;;0.26;100.00
5574;BME280;2563;52.242;7.956;2023-03-01T08:05:41;101213.09;;;0.39;100.00
5574;BME280;2563;52.242;7.956;2023-03-01T08:08:06;101223.84;;;0.61;100.00
5574;BME280;2563;52.242;7.956;2023-03-01T08:10:32;101230.38;;;0.84;100.00
5574;BME280;2563;52.242;7.956;2023-03-01T08:12:57;101224.28;;;1.44;100.00
5574;BME280;2563;52.242;7.956;2023-03-01T08:15:22;101235.16;;;1.77;100.00
5574;BME280;2563;52.242;7.956;2023-03-01T08:17:49;101244.31;;;2.08;100.00
5574;BME280;2563;52.242;7.956;2023-03-01T08:20:14;101269.13;;;2.18;100.00
5574;BME280;2563;52.242;7.956;2023-03-01T08:22:40;101297.78;;;2.14;100.00
5574;BME280;2563;52.242;7.956;2023-03-01T08:25:05;101331.34;;;2.01;100.00
5574;BME280;2563;52.242;7.956;2023-03-01T08:27:30;101349.09;;;1.99;100.00
5574;BME280;2563;52.242;7.956;2023-03-01T08:29:56;101365.75;;;2.24;100.00
5574;BME280;2563;52.242;7.956;2023-03-01T08:32:21;101362.94;;;2.91;100.00
5574;BME280;2563;52.242;7.956;2023-03-01T08:34:47;101400.47;;;2.63;100.00
5574;BME280;2563;52.242;7.956;2023-03-01T08:37:12;101430.81;;;2.55;100.00
5574;BME280;2563;52.242;7.956;2023-03-01T08:39:38;101428.84;;;3.23;100.00
5574;BME280;2563;52.242;7.956;2023-03-01T08:42:03;101447.88;;;3.40;100.00
5574;BME280;2563;52.242;7.956;2023-03-01T08:44:28;101487.41;;;3.24;100.00
5574;BME280;2563;52.242;7.956;2023-03-01T08:46:54;101489.28;;;3.75;100.00
5574;BME280;2563;52.242;7.956;2023-03-01T08:49:20;101505.75;;;3.94;100.00
5574;BME280;2563;52.242;7.956;2023-03-01T08:51:47;101531.94;;;3.87;100.00
5574;BME280;2563;52.242;7.956;2023-03-01T08:54:15;101567.59;;;3.87;100.00
5574;BME280;2563;52.242;7.956;2023-03-01T08:56:41;101573.50;;;4.30;100.00
5574;BME280;2563;52.242;7.956;2023-03-01T08:59:06;101577.22;;;4.49;100.00
5574;BME280;2563;52.242;7.956;2023-03-01T09:01:32;101593.88;;;4.79;100.00
5574;BME280;2563;52.242;7.956;2023-03-01T09:03:58;101611.91;;;4.89;100.00
5574;BME280;2563;52.242;7.956;2023-03-01T09:06:24;101615.94;;;5.31;100.00
5574;BME280;2563;52.242;7.956;2023-03-01T09:08:49;101683.91;;;4.73;100.00
5574;BME280;2563;52.242;7.956;2023-03-01T09:11:19;101678.97;;;5.32;100.00
5574;BME280;2563;52.242;7.956;2023-03-01T09:13:46;101710.50;;;5.38;100.00
5574;BME280;2563;52.242;7.956;2023-03-01T09:16:13;101746.19;;;5.33;100.00
5574;BME280;2563;52.242;7.956;2023-03-01T09:18:39;101764.44;;;5.56;100.00
5574;BME280;2563;52.242;7.956;2023-03-01T09:23:43;101812.44;;;5.75;100.00
5574;BME280;2563;52.242;7.956;2023-03-01T09:26:19;101826.78;;;6.21;100.00
5574;BME280;2563;52.242;7.956;2023-03-01T09:28:47;101847.00;;;6.66;100.00
5574;BME280;2563;52.242;7.956;2023-03-01T09:31:15;101879.34;;;6.61;100.00
5574;BME280;2563;52.242;7.956;2023-03-01T09:33:41;101907.16;;;6.38;100.00
5574;BME280;2563;52.242;7.956;2023-03-01T09:36:10;101935.72;;;6.12;100.00
5574;BME280;2563;52.242;7.956;2023-03-01T09:38:36;101936.56;;;6.68;100.00
5574;BME280;2563;52.242;7.956;2023-03-01T09:41:02;101942.78;;;6.84;100.00
5574;BME280;2563;52.242;7.956;2023-03-01T09:45:59;101973.81;;;6.47;100.00
5574;BME280;2563;52.242;7.956;2023-03-01T09:48:28;101975.31;;;6.94;100.00
5574;BME280;2563;52.242;7.956;2023-03-01T09:50:56;101981.41;;;7.03;100.00
5574;BME280;2563;52.242;7.956;2023-03-01T09:53:27;102004.81;;;6.69;100.00
5574;BME280;2563;52.242;7.956;2023-03-01T09:56:01;101997.69;;;7.09;100.00
5574;BME280;2563;52.242;7.956;2023-03-01T10:04:00;102023.63;;;7.32;100.00
5574;BME280;2563;52.242;7.956;2023-03-01T10:06:28;102015.75;;;7.88;100.00
5574;BME280;2563;52.242;7.956;2023-03-01T10:09:01;102036.59;;;7.42;100.00
5574;BME280;2563;52.242;7.956;2023-03-01T10:11:33;102026.81;;;7.84;100.00
5574;BME280;2563;52.242;7.956;2023-03-01T10:14:09;102020.72;;;7.73;100.00
5574;BME280;2563;52.242;7.956;2023-03-01T10:16:41;102021.88;;;8.01;100.00
5574;BME280;2563;52.242;7.956;2023-03-01T10:19:14;102012.69;;;8.26;100.00
5574;BME280;2563;52.242;7.956;2023-03-01T10:21:44;102021.88;;;8.01;100.00
5574;BME280;2563;52.242;7.956;2023-03-01T10:24:13;102028.03;;;7.42;100.00
5574;BME280;2563;52.242;7.956;2023-03-01T10:27:04;102003.34;;;8.32;100.00
5574;BME280;2563;52.242;7.956;2023-03-01T10:32:17;101990.53;;;8.31;100.00
5574;BME280;2563;52.242;7.956;2023-03-01T10:34:43;101975.34;;;8.52;100.00
5574;BME280;2563;52.242;7.956;2023-03-01T10:37:17;101987.84;;;8.20;100.00
5574;BME280;2563;52.242;7.956;2023-03-01T10:40:09;101978.72;;;8.48;100.00
5574;BME280;2563;52.242;7.956;2023-03-01T10:42:36;101972.91;;;8.76;100.00
5574;BME280;2563;52.242;7.956;2023-03-01T10:45:37;101976.28;;;8.65;100.00
5574;BME280;2563;52.242;7.956;2023-03-01T10:53:35;101957.63;;;8.96;100.00
5574;BME280;2563;52.242;7.956;2023-03-01T10:56:05;101973.81;;;8.79;100.00
5574;BME280;2563;52.242;7.956;2023-03-01T10:58:32;101969.63;;;9.01;100.00
5574;BME280;2563;52.242;7.956;2023-03-01T11:01:03;101988.38;;;8.88;100.00
5574;BME280;2563;52.242;7.956;2023-03-01T11:13:30;102011.59;;;9.06;100.00
5574;BME280;2563;52.242;7.956;2023-03-01T11:16:02;102037.19;;;8.86;100.00
5574;BME280;2563;52.242;7.956;2023-03-01T11:18:30;102044.69;;;8.62;100.00
5574;BME280;2563;52.242;7.956;2023-03-01T11:20:56;102067.00;;;8.67;100.00
5574;BME280;2563;52.242;7.956;2023-03-01T11:23:24;102077.38;;;8.84;100.00
5574;BME280;2563;52.242;7.956;2023-03-01T11:25:59;102093.59;;;8.79;100.00
5574;BME280;2563;52.242;7.956;2023-03-01T11:28:27;102106.25;;;8.57;100.00
5574;BME280;2563;52.242;7.956;2023-03-01T11:31:06;102114.91;;;8.67;100.00
5574;BME280;2563;52.242;7.956;2023-03-01T11:38:53;102142.75;;;8.33;100.00
5574;BME280;2563;52.242;7.956;2023-03-01T11:41:34;102139.97;;;8.13;100.00
5574;BME280;2563;52.242;7.956;2023-03-01T11:51:48;102140.22;;;8.35;100.00
5574;BME280;2563;52.242;7.956;2023-03-01T11:55:07;102127.13;;;9.00;100.00
5574;BME280;2563;52.242;7.956;2023-03-01T11:57:32;102123.88;;;9.20;100.00
5574;BME280;2563;52.242;7.956;2023-03-01T12:08:21;102098.31;;;8.36;100.00
5574;BME280;2563;52.242;7.956;2023-03-01T12:11:15;102099.88;;;8.20;100.00
5574;BME280;2563;52.242;7.956;2023-03-01T12:16:45;102106.66;;;9.06;100.00
5574;BME280;2563;52.242;7.956;2023-03-01T12:19:51;102093.81;;;8.16;100.00
5574;BME280;2563;52.242;7.956;2023-03-01T12:22:32;102099.53;;;8.73;100.00
5574;BME280;2563;52.242;7.956;2023-03-01T12:43:49;102075.84;;;9.09;100.00
5574;BME280;2563;52.242;7.956;2023-03-01T12:52:35;102069.47;;;8.58;100.00
5574;BME280;2563;52.242;7.956;2023-03-01T12:55:14;102054.78;;;8.42;100.00
5574;BME280;2563;52.242;7.956;2023-03-01T12:57:49;102048.22;;;8.71;100.00
5574;BME280;2563;52.242;7.956;2023-03-01T13:00:31;102045.00;;;9.06;100.00
5574;BME280;2563;52.242;7.956;2023-03-01T13:05:50;102036.59;;;8.20;100.00
5574;BME280;2563;52.242;7.956;2023-03-01T13:08:28;102025.22;;;7.94;100.00
5574;BME280;2563;52.242;7.956;2023-03-01T13:11:19;102030.19;;;8.67;100.00
5574;BME280;2563;52.242;7.956;2023-03-01T13:13:45;102034.47;;;8.68;100.00
5574;BME280;2563;52.242;7.956;2023-03-01T13:16:39;102031.22;;;8.95;100.00
5574;BME280;2563;52.242;7.956;2023-03-01T13:19:15;102033.09;;;9.18;100.00
5574;BME280;2563;52.242;7.956;2023-03-01T13:21:42;102029.72;;;9.31;100.00
5574;BME280;2563;52.242;7.956;2023-03-01T13:24:27;102021.84;;;8.99;100.00
5574;BME280;2563;52.242;7.956;2023-03-01T13:29:46;102016.75;;;9.09;100.00
5574;BME280;2563;52.242;7.956;2023-03-01T13:32:25;102018.44;;;9.07;100.00
5574;BME280;2563;52.242;7.956;2023-03-01T13:37:42;102008.97;;;8.94;100.00
5574;BME280;2563;52.242;7.956;2023-03-01T13:42:44;102001.34;;;9.06;100.00
5574;BME280;2563;52.242;7.956;2023-03-01T13:45:38;101994.97;;;8.49;100.00
5574;BME280;2563;52.242;7.956;2023-03-01T13:48:25;101996.75;;;8.59;100.00
5574;BME280;2563;52.242;7.956;2023-03-01T13:51:12;101992.31;;;8.40;100.00
5574;BME280;2563;52.242;7.956;2023-03-01T13:53:47;101995.91;;;8.60;100.00
5574;BME280;2563;52.242;7.956;2023-03-01T13:56:15;102000.91;;;8.45;100.00
5574;BME280;2563;52.242;7.956;2023-03-01T14:03:47;101984.25;;;9.16;100.00
5574;BME280;2563;52.242;7.956;2023-03-01T14:06:15;101983.41;;;9.19;100.00
5574;BME280;2563;52.242;7.956;2023-03-01T14:08:44;101976.59;;;9.22;100.00
5574;BME280;2563;52.242;7.956;2023-03-01T14:19:21;101976.47;;;8.99;100.00
5574;BME280;2563;52.242;7.956;2023-03-01T14:21:59;101962.63;;;8.76;100.00
5574;BME280;2563;52.242;7.956;2023-03-01T14:24:27;101960.88;;;8.65;100.00
5574;BME280;2563;52.242;7.956;2023-03-01T14:26:53;101952.75;;;8.15;100.00
5574;BME280;2563;52.242;7.956;2023-03-01T14:29:58;101954.44;;;8.11;100.00
5574;BME280;2563;52.242;7.956;2023-03-01T14:32:26;101945.31;;;7.51;100.00
5574;BME280;2563;52.242;7.956;2023-03-01T14:34:52;101946.09;;;7.46;100.00
5574;BME280;2563;52.242;7.956;2023-03-01T14:37:52;101942.25;;;7.87;100.00
5574;BME280;2563;52.242;7.956;2023-03-01T14:40:30;101944.81;;;7.85;100.00
5574;BME280;2563;52.242;7.956;2023-03-01T14:42:58;101941.22;;;7.66;99.15
5574;BME280;2563;52.242;7.956;2023-03-01T14:45:26;101940.41;;;7.72;99.43
5574;BME280;2563;52.242;7.956;2023-03-01T14:47:53;101934.41;;;7.70;99.68
5574;BME280;2563;52.242;7.956;2023-03-01T14:52:47;101916.47;;;7.72;100.00
5574;BME280;2563;52.242;7.956;2023-03-01T14:55:19;101911.41;;;7.76;100.00
5574;BME280;2563;52.242;7.956;2023-03-01T14:57:47;101915.72;;;7.85;100.00
5574;BME280;2563;52.242;7.956;2023-03-01T15:02:43;101913.44;;;8.19;100.00
5574;BME280;2563;52.242;7.956;2023-03-01T15:05:14;101908.19;;;8.02;100.00
5574;BME280;2563;52.242;7.956;2023-03-01T15:07:41;101916.72;;;7.98;100.00
5574;BME280;2563;52.242;7.956;2023-03-01T15:10:23;101908.34;;;7.30;100.00